If you wish to contribute or participate in the discussions about articles you are invited to join SKYbrary as a registered user

 Actions

Noi Bai International Airport

From SKYbrary Wiki

VVNB /
Revision as of 00:03, 5 May 2010 by Timo.Kouwenhoven (talk | contribs) (Created page with '{{Airport |Airport_Name=Noi Bai International Airport |ICAO_Region=APAC |ICAO_Territory=VV |Location=Hanoi, Vietnam |Coordinates=21.2211111° N, 105.8072222° E }} IATA: HAN')
(diff) ← Older revision | Latest revision (diff) | Newer revision → (diff)
Airport
ICAO: VVNB
Summary
Name Noi Bai International Airport
Region Asia and Pacific
Territory Vietnam VN.gif
Location Hanoi, Vietnam
Serving
Coordinates 21° 13' 16.00" N, 105° 48' 26.00" E
Runways
Designator Length Width Surface ROPS
11L/29R 3800 m12,467.192 ft
45 m147.638 ft
CON yes/yes
11R/29L 3800 m12,467.192 ft
45 m147.638 ft
CON yes/yes


METAR
Observation VVNB 021430Z VRB02KT 7000 NSC 19/13 Q1022 NOSIG
Station Ha Noi
Date/Time 02 December 2020 14:30:00
Wind direction °
Wind speed 02 kts
Lowest cloud amount nil significant cloud
Temperature 19°C
Dew point 13°C
Humidity 68%
QNH 1022 hPa
Weather condition n/a

IATA: HAN